Terminal Aerodrome Forecast
Issued by NWS Dallas/Fort Worth, TX

Home | Current Version | Previous Version | Text Only | Print | Product List | Glossary On
Versions: 1 2 3 4 5 6 7 8 9 10 11 12 13 14 15 16 17 18 19 20 21 22 23 24 25 26 27 28
000
FTUS44 KFWD 021700
TAFDFW
TAF
KDFW 021725Z 0218/0324 20019KT P6SM VCTS SCT035CB
     FM022000 24018G30KT 6SM TSRA BKN040CB OVC100
     FM022200 30015G25KT P6SM BKN250
     FM030400 34015KT P6SM SKC=

USA.gov is the U.S. government's official web portal to all federal, state and local government web resources and services.